sensor_id;sensor_type;location;lat;lon;timestamp;P1;durP1;ratioP1;P2;durP2;ratioP2
69573;SDS011;62840;52.366;5.980;2023-03-23T00:01:25;8.70;;;3.28;;
69573;SDS011;62840;52.366;5.980;2023-03-23T00:03:52;7.70;;;2.78;;
69573;SDS011;62840;52.366;5.980;2023-03-23T00:06:19;11.05;;;3.40;;
69573;SDS011;62840;52.366;5.980;2023-03-23T00:08:48;7.35;;;3.63;;
69573;SDS011;62840;52.366;5.980;2023-03-23T00:11:18;6.00;;;3.17;;
69573;SDS011;62840;52.366;5.980;2023-03-23T00:13:47;6.82;;;3.10;;
69573;SDS011;62840;52.366;5.980;2023-03-23T00:16:15;6.68;;;2.90;;
69573;SDS011;62840;52.366;5.980;2023-03-23T00:18:41;6.03;;;3.00;;
69573;SDS011;62840;52.366;5.980;2023-03-23T00:21:07;5.75;;;2.78;;
69573;SDS011;62840;52.366;5.980;2023-03-23T00:23:32;6.50;;;2.87;;
69573;SDS011;62840;52.366;5.980;2023-03-23T00:26:01;6.80;;;3.30;;
69573;SDS011;62840;52.366;5.980;2023-03-23T00:28:27;5.43;;;3.00;;
69573;SDS011;62840;52.366;5.980;2023-03-23T00:30:56;5.97;;;2.63;;
69573;SDS011;62840;52.366;5.980;2023-03-23T00:33:23;5.90;;;2.67;;
69573;SDS011;62840;52.366;5.980;2023-03-23T00:35:52;5.30;;;2.17;;
69573;SDS011;62840;52.366;5.980;2023-03-23T00:38:18;6.13;;;2.72;;
69573;SDS011;62840;52.366;5.980;2023-03-23T00:40:44;5.47;;;2.53;;
69573;SDS011;62840;52.366;5.980;2023-03-23T00:43:12;6.72;;;2.58;;
69573;SDS011;62840;52.366;5.980;2023-03-23T00:45:38;5.50;;;3.13;;
69573;SDS011;62840;52.366;5.980;2023-03-23T00:48:04;7.03;;;2.83;;
69573;SDS011;62840;52.366;5.980;2023-03-23T00:50:30;6.20;;;3.00;;
69573;SDS011;62840;52.366;5.980;2023-03-23T00:52:56;6.22;;;2.67;;
69573;SDS011;62840;52.366;5.980;2023-03-23T00:55:22;6.17;;;2.63;;
69573;SDS011;62840;52.366;5.980;2023-03-23T00:57:49;5.55;;;2.42;;
69573;SDS011;62840;52.366;5.980;2023-03-23T01:00:17;6.15;;;2.97;;
69573;SDS011;62840;52.366;5.980;2023-03-23T01:02:44;8.07;;;2.93;;
69573;SDS011;62840;52.366;5.980;2023-03-23T01:05:10;5.97;;;2.50;;
69573;SDS011;62840;52.366;5.980;2023-03-23T01:07:37;6.13;;;2.78;;
69573;SDS011;62840;52.366;5.980;2023-03-23T01:10:03;7.22;;;2.60;;
69573;SDS011;62840;52.366;5.980;2023-03-23T01:12:30;7.63;;;2.50;;
69573;SDS011;62840;52.366;5.980;2023-03-23T01:14:56;5.38;;;2.60;;
69573;SDS011;62840;52.366;5.980;2023-03-23T01:17:24;5.80;;;2.35;;
69573;SDS011;62840;52.366;5.980;2023-03-23T01:19:50;5.87;;;2.50;;
69573;SDS011;62840;52.366;5.980;2023-03-23T01:22:15;4.70;;;2.20;;
69573;SDS011;62840;52.366;5.980;2023-03-23T01:24:41;5.50;;;2.23;;
69573;SDS011;62840;52.366;5.980;2023-03-23T01:27:07;4.85;;;1.98;;
69573;SDS011;62840;52.366;5.980;2023-03-23T01:29:33;6.37;;;2.17;;
69573;SDS011;62840;52.366;5.980;2023-03-23T01:31:59;6.15;;;2.00;;
69573;SDS011;62840;52.366;5.980;2023-03-23T01:34:27;5.50;;;2.10;;
69573;SDS011;62840;52.366;5.980;2023-03-23T01:36:53;5.85;;;2.20;;
69573;SDS011;62840;52.366;5.980;2023-03-23T01:39:18;4.75;;;2.08;;
69573;SDS011;62840;52.366;5.980;2023-03-23T01:41:45;4.38;;;2.13;;
69573;SDS011;62840;52.366;5.980;2023-03-23T01:47:22;5.13;;;1.97;;
69573;SDS011;62840;52.366;5.980;2023-03-23T01:49:50;5.43;;;1.85;;
69573;SDS011;62840;52.366;5.980;2023-03-23T01:52:18;4.35;;;1.95;;
69573;SDS011;62840;52.366;5.980;2023-03-23T01:54:48;4.55;;;1.92;;
69573;SDS011;62840;52.366;5.980;2023-03-23T01:57:19;4.55;;;1.80;;
69573;SDS011;62840;52.366;5.980;2023-03-23T01:59:49;5.20;;;2.23;;
69573;SDS011;62840;52.366;5.980;2023-03-23T02:02:24;6.43;;;1.95;;
69573;SDS011;62840;52.366;5.980;2023-03-23T02:05:00;5.65;;;2.17;;
69573;SDS011;62840;52.366;5.980;2023-03-23T02:07:38;4.50;;;1.85;;
69573;SDS011;62840;52.366;5.980;2023-03-23T02:10:20;6.50;;;1.80;;
69573;SDS011;62840;52.366;5.980;2023-03-23T02:12:59;5.13;;;1.90;;
69573;SDS011;62840;52.366;5.980;2023-03-23T02:15:38;5.30;;;1.90;;
69573;SDS011;62840;52.366;5.980;2023-03-23T02:18:28;5.00;;;2.10;;
69573;SDS011;62840;52.366;5.980;2023-03-23T02:24:56;5.40;;;2.05;;
69573;SDS011;62840;52.366;5.980;2023-03-23T02:27:44;4.30;;;1.57;;
69573;SDS011;62840;52.366;5.980;2023-03-23T02:31:11;5.25;;;1.83;;
69573;SDS011;62840;52.366;5.980;2023-03-23T02:34:17;5.50;;;1.80;;
69573;SDS011;62840;52.366;5.980;2023-03-23T02:37:04;4.32;;;1.95;;
69573;SDS011;62840;52.366;5.980;2023-03-23T02:39:42;5.03;;;2.05;;
69573;SDS011;62840;52.366;5.980;2023-03-23T02:42:18;5.07;;;1.83;;
69573;SDS011;62840;52.366;5.980;2023-03-23T02:45:00;4.80;;;2.03;;
69573;SDS011;62840;52.366;5.980;2023-03-23T02:48:02;5.50;;;2.08;;
69573;SDS011;62840;52.366;5.980;2023-03-23T02:50:38;5.60;;;2.00;;
69573;SDS011;62840;52.366;5.980;2023-03-23T02:53:27;5.15;;;2.17;;
69573;SDS011;62840;52.366;5.980;2023-03-23T02:56:02;4.70;;;2.10;;
69573;SDS011;62840;52.366;5.980;2023-03-23T02:58:35;4.85;;;1.92;;
69573;SDS011;62840;52.366;5.980;2023-03-23T03:01:15;5.97;;;2.10;;
69573;SDS011;62840;52.366;5.980;2023-03-23T03:04:38;3.97;;;2.00;;
69573;SDS011;62840;52.366;5.980;2023-03-23T03:07:36;6.43;;;2.20;;
69573;SDS011;62840;52.366;5.980;2023-03-23T03:10:27;5.17;;;2.30;;
69573;SDS011;62840;52.366;5.980;2023-03-23T03:13:10;5.47;;;2.13;;
69573;SDS011;62840;52.366;5.980;2023-03-23T03:15:48;5.10;;;2.38;;
69573;SDS011;62840;52.366;5.980;2023-03-23T03:18:37;5.40;;;2.40;;
69573;SDS011;62840;52.366;5.980;2023-03-23T03:21:14;5.88;;;2.50;;
69573;SDS011;62840;52.366;5.980;2023-03-23T03:24:00;4.83;;;2.33;;
69573;SDS011;62840;52.366;5.980;2023-03-23T03:26:46;5.05;;;2.50;;
69573;SDS011;62840;52.366;5.980;2023-03-23T03:29:29;5.85;;;2.95;;
69573;SDS011;62840;52.366;5.980;2023-03-23T03:32:05;5.75;;;2.20;;
69573;SDS011;62840;52.366;5.980;2023-03-23T03:34:44;6.07;;;2.40;;
69573;SDS011;62840;52.366;5.980;2023-03-23T03:37:14;5.67;;;2.27;;
69573;SDS011;62840;52.366;5.980;2023-03-23T03:39:49;6.38;;;2.33;;
69573;SDS011;62840;52.366;5.980;2023-03-23T03:42:21;5.68;;;2.55;;
69573;SDS011;62840;52.366;5.980;2023-03-23T03:44:53;5.50;;;2.55;;
69573;SDS011;62840;52.366;5.980;2023-03-23T03:47:26;5.70;;;2.50;;
69573;SDS011;62840;52.366;5.980;2023-03-23T03:50:01;5.97;;;2.50;;
69573;SDS011;62840;52.366;5.980;2023-03-23T03:52:36;4.90;;;2.50;;
69573;SDS011;62840;52.366;5.980;2023-03-23T03:55:07;5.85;;;2.50;;
69573;SDS011;62840;52.366;5.980;2023-03-23T03:57:35;5.85;;;2.47;;
69573;SDS011;62840;52.366;5.980;2023-03-23T04:00:02;6.10;;;2.30;;
69573;SDS011;62840;52.366;5.980;2023-03-23T04:02:36;5.07;;;2.10;;
69573;SDS011;62840;52.366;5.980;2023-03-23T04:05:19;7.15;;;2.50;;
69573;SDS011;62840;52.366;5.980;2023-03-23T04:07:52;5.70;;;2.45;;
69573;SDS011;62840;52.366;5.980;2023-03-23T04:10:30;5.53;;;2.30;;
69573;SDS011;62840;52.366;5.980;2023-03-23T04:13:16;4.93;;;2.40;;
69573;SDS011;62840;52.366;5.980;2023-03-23T04:15:53;4.83;;;2.20;;
69573;SDS011;62840;52.366;5.980;2023-03-23T04:18:44;4.55;;;2.00;;
69573;SDS011;62840;52.366;5.980;2023-03-23T04:21:26;6.85;;;2.53;;
69573;SDS011;62840;52.366;5.980;2023-03-23T04:23:57;5.15;;;2.15;;
69573;SDS011;62840;52.366;5.980;2023-03-23T04:26:34;7.20;;;2.05;;
69573;SDS011;62840;52.366;5.980;2023-03-23T04:29:06;6.83;;;2.37;;
69573;SDS011;62840;52.366;5.980;2023-03-23T04:31:52;5.10;;;2.28;;
69573;SDS011;62840;52.366;5.980;2023-03-23T04:34:25;6.50;;;2.72;;
69573;SDS011;62840;52.366;5.980;2023-03-23T04:36:57;4.78;;;2.10;;
69573;SDS011;62840;52.366;5.980;2023-03-23T04:39:27;5.28;;;2.10;;
69573;SDS011;62840;52.366;5.980;2023-03-23T04:44:41;4.53;;;1.95;;
69573;SDS011;62840;52.366;5.980;2023-03-23T04:47:20;4.85;;;2.30;;
69573;SDS011;62840;52.366;5.980;2023-03-23T04:49:56;4.97;;;2.17;;
69573;SDS011;62840;52.366;5.980;2023-03-23T04:52:24;6.22;;;2.47;;
69573;SDS011;62840;52.366;5.980;2023-03-23T04:54:58;5.93;;;2.10;;
69573;SDS011;62840;52.366;5.980;2023-03-23T04:57:49;6.78;;;2.10;;
69573;SDS011;62840;52.366;5.980;2023-03-23T05:00:16;5.93;;;2.50;;
69573;SDS011;62840;52.366;5.980;2023-03-23T05:02:44;7.07;;;2.30;;
69573;SDS011;62840;52.366;5.980;2023-03-23T05:05:28;4.22;;;2.08;;
69573;SDS011;62840;52.366;5.980;2023-03-23T05:07:58;4.43;;;1.87;;
69573;SDS011;62840;52.366;5.980;2023-03-23T05:10:33;4.65;;;1.92;;
69573;SDS011;62840;52.366;5.980;2023-03-23T05:13:03;5.05;;;2.13;;
69573;SDS011;62840;52.366;5.980;2023-03-23T05:15:30;5.55;;;2.33;;
69573;SDS011;62840;52.366;5.980;2023-03-23T05:20:51;5.57;;;1.90;;
69573;SDS011;62840;52.366;5.980;2023-03-23T05:23:27;6.22;;;2.10;;
69573;SDS011;62840;52.366;5.980;2023-03-23T05:26:05;6.28;;;1.90;;
69573;SDS011;62840;52.366;5.980;2023-03-23T05:28:51;4.03;;;1.70;;
69573;SDS011;62840;52.366;5.980;2023-03-23T05:31:25;6.43;;;2.10;;
69573;SDS011;62840;52.366;5.980;2023-03-23T05:33:59;6.23;;;1.80;;
69573;SDS011;62840;52.366;5.980;2023-03-23T05:36:30;6.28;;;1.80;;
69573;SDS011;62840;52.366;5.980;2023-03-23T05:39:05;5.10;;;2.15;;
69573;SDS011;62840;52.366;5.980;2023-03-23T05:41:39;6.32;;;1.55;;
69573;SDS011;62840;52.366;5.980;2023-03-23T05:44:23;6.35;;;1.83;;
69573;SDS011;62840;52.366;5.980;2023-03-23T05:47:10;5.97;;;2.07;;
69573;SDS011;62840;52.366;5.980;2023-03-23T05:49:38;4.07;;;1.33;;
69573;SDS011;62840;52.366;5.980;2023-03-23T05:52:06;4.93;;;1.70;;
69573;SDS011;62840;52.366;5.980;2023-03-23T05:54:35;6.30;;;2.00;;
69573;SDS011;62840;52.366;5.980;2023-03-23T05:57:07;6.32;;;1.73;;
69573;SDS011;62840;52.366;5.980;2023-03-23T05:59:51;4.90;;;1.70;;
69573;SDS011;62840;52.366;5.980;2023-03-23T06:02:20;5.95;;;1.50;;
69573;SDS011;62840;52.366;5.980;2023-03-23T06:04:48;4.80;;;1.42;;
69573;SDS011;62840;52.366;5.980;2023-03-23T06:07:28;6.55;;;2.42;;
69573;SDS011;62840;52.366;5.980;2023-03-23T06:10:00;5.75;;;1.77;;
69573;SDS011;62840;52.366;5.980;2023-03-23T06:12:29;4.20;;;1.50;;
69573;SDS011;62840;52.366;5.980;2023-03-23T06:15:01;7.32;;;1.60;;
69573;SDS011;62840;52.366;5.980;2023-03-23T06:17:34;5.88;;;1.50;;
69573;SDS011;62840;52.366;5.980;2023-03-23T06:20:14;5.30;;;1.75;;
69573;SDS011;62840;52.366;5.980;2023-03-23T06:23:10;5.68;;;1.60;;
69573;SDS011;62840;52.366;5.980;2023-03-23T06:25:59;5.40;;;1.37;;
69573;SDS011;62840;52.366;5.980;2023-03-23T06:28:35;5.63;;;1.33;;
69573;SDS011;62840;52.366;5.980;2023-03-23T06:31:07;4.75;;;1.40;;
69573;SDS011;62840;52.366;5.980;2023-03-23T06:33:44;5.63;;;1.40;;
69573;SDS011;62840;52.366;5.980;2023-03-23T06:36:12;5.85;;;1.35;;
69573;SDS011;62840;52.366;5.980;2023-03-23T06:38:41;4.13;;;1.47;;
69573;SDS011;62840;52.366;5.980;2023-03-23T06:41:15;5.05;;;1.50;;
69573;SDS011;62840;52.366;5.980;2023-03-23T06:43:44;6.10;;;1.48;;
69573;SDS011;62840;52.366;5.980;2023-03-23T06:46:17;6.50;;;1.35;;
69573;SDS011;62840;52.366;5.980;2023-03-23T06:48:43;5.65;;;1.58;;
69573;SDS011;62840;52.366;5.980;2023-03-23T06:51:09;5.87;;;1.50;;
69573;SDS011;62840;52.366;5.980;2023-03-23T06:53:34;6.32;;;1.60;;
69573;SDS011;62840;52.366;5.980;2023-03-23T06:56:00;8.50;;;1.70;;
69573;SDS011;62840;52.366;5.980;2023-03-23T06:58:26;5.18;;;1.58;;
69573;SDS011;62840;52.366;5.980;2023-03-23T07:00:55;8.57;;;1.98;;
69573;SDS011;62840;52.366;5.980;2023-03-23T07:03:24;5.65;;;1.83;;
69573;SDS011;62840;52.366;5.980;2023-03-23T07:05:50;5.85;;;1.30;;
69573;SDS011;62840;52.366;5.980;2023-03-23T07:08:16;6.75;;;1.90;;
69573;SDS011;62840;52.366;5.980;2023-03-23T07:10:43;5.47;;;1.42;;
69573;SDS011;62840;52.366;5.980;2023-03-23T07:13:09;5.32;;;1.70;;
69573;SDS011;62840;52.366;5.980;2023-03-23T07:15:35;4.65;;;1.60;;
69573;SDS011;62840;52.366;5.980;2023-03-23T07:18:01;4.25;;;1.63;;
69573;SDS011;62840;52.366;5.980;2023-03-23T07:20:30;5.15;;;1.48;;
69573;SDS011;62840;52.366;5.980;2023-03-23T07:22:55;5.32;;;1.40;;
69573;SDS011;62840;52.366;5.980;2023-03-23T07:25:21;4.88;;;1.77;;
69573;SDS011;62840;52.366;5.980;2023-03-23T07:27:47;3.67;;;1.30;;
69573;SDS011;62840;52.366;5.980;2023-03-23T07:30:13;4.63;;;1.35;;
69573;SDS011;62840;52.366;5.980;2023-03-23T07:32:39;5.43;;;1.48;;
69573;SDS011;62840;52.366;5.980;2023-03-23T07:35:06;6.38;;;1.60;;
69573;SDS011;62840;52.366;5.980;2023-03-23T07:37:36;4.85;;;1.40;;
69573;SDS011;62840;52.366;5.980;2023-03-23T07:40:02;4.30;;;1.48;;
69573;SDS011;62840;52.366;5.980;2023-03-23T07:42:28;4.80;;;1.50;;
69573;SDS011;62840;52.366;5.980;2023-03-23T07:44:54;5.25;;;1.30;;
69573;SDS011;62840;52.366;5.980;2023-03-23T07:47:20;5.20;;;1.20;;
69573;SDS011;62840;52.366;5.980;2023-03-23T07:49:45;4.65;;;1.50;;
69573;SDS011;62840;52.366;5.980;2023-03-23T07:52:11;3.83;;;1.53;;
69573;SDS011;62840;52.366;5.980;2023-03-23T07:54:40;5.63;;;1.42;;
69573;SDS011;62840;52.366;5.980;2023-03-23T07:57:08;6.75;;;1.83;;
69573;SDS011;62840;52.366;5.980;2023-03-23T07:59:47;5.18;;;1.67;;
69573;SDS011;62840;52.366;5.980;2023-03-23T08:02:19;5.37;;;1.50;;
69573;SDS011;62840;52.366;5.980;2023-03-23T08:04:47;8.57;;;1.63;;
69573;SDS011;62840;52.366;5.980;2023-03-23T08:07:18;6.80;;;1.55;;
69573;SDS011;62840;52.366;5.980;2023-03-23T08:09:47;4.97;;;1.33;;
69573;SDS011;62840;52.366;5.980;2023-03-23T08:12:15;5.53;;;1.83;;
69573;SDS011;62840;52.366;5.980;2023-03-23T08:14:42;7.43;;;1.50;;
69573;SDS011;62840;52.366;5.980;2023-03-23T08:17:11;6.22;;;1.50;;
69573;SDS011;62840;52.366;5.980;2023-03-23T08:19:39;4.65;;;1.50;;
69573;SDS011;62840;52.366;5.980;2023-03-23T08:22:13;4.80;;;1.63;;
69573;SDS011;62840;52.366;5.980;2023-03-23T08:24:39;5.38;;;1.50;;
69573;SDS011;62840;52.366;5.980;2023-03-23T08:27:16;4.80;;;1.50;;
69573;SDS011;62840;52.366;5.980;2023-03-23T08:29:51;6.15;;;1.70;;
69573;SDS011;62840;52.366;5.980;2023-03-23T08:32:21;5.22;;;1.73;;
69573;SDS011;62840;52.366;5.980;2023-03-23T08:34:52;5.03;;;1.60;;
69573;SDS011;62840;52.366;5.980;2023-03-23T08:37:18;6.18;;;1.85;;
69573;SDS011;62840;52.366;5.980;2023-03-23T08:40:04;4.70;;;1.50;;
69573;SDS011;62840;52.366;5.980;2023-03-23T08:42:35;6.00;;;1.77;;
69573;SDS011;62840;52.366;5.980;2023-03-23T08:45:03;5.40;;;1.48;;
69573;SDS011;62840;52.366;5.980;2023-03-23T08:47:35;7.65;;;1.73;;
69573;SDS011;62840;52.366;5.980;2023-03-23T08:50:03;6.20;;;1.70;;
69573;SDS011;62840;52.366;5.980;2023-03-23T08:52:39;6.83;;;1.57;;
69573;SDS011;62840;52.366;5.980;2023-03-23T08:55:14;5.57;;;1.50;;
69573;SDS011;62840;52.366;5.980;2023-03-23T08:57:53;4.88;;;1.50;;
69573;SDS011;62840;52.366;5.980;2023-03-23T09:00:22;4.43;;;1.33;;
69573;SDS011;62840;52.366;5.980;2023-03-23T09:02:55;5.25;;;1.58;;
69573;SDS011;62840;52.366;5.980;2023-03-23T09:05:28;3.60;;;1.40;;
69573;SDS011;62840;52.366;5.980;2023-03-23T09:07:57;8.90;;;1.90;;
69573;SDS011;62840;52.366;5.980;2023-03-23T09:10:27;7.30;;;1.92;;
69573;SDS011;62840;52.366;5.980;2023-03-23T09:12:55;6.60;;;1.60;;
69573;SDS011;62840;52.366;5.980;2023-03-23T09:15:26;6.68;;;1.45;;
69573;SDS011;62840;52.366;5.980;2023-03-23T09:17:54;5.40;;;1.50;;
69573;SDS011;62840;52.366;5.980;2023-03-23T09:20:20;5.47;;;1.70;;
69573;SDS011;62840;52.366;5.980;2023-03-23T09:22:51;6.25;;;2.08;;
69573;SDS011;62840;52.366;5.980;2023-03-23T09:25:21;5.90;;;1.63;;
69573;SDS011;62840;52.366;5.980;2023-03-23T09:28:04;4.30;;;1.85;;
69573;SDS011;62840;52.366;5.980;2023-03-23T09:30:33;7.33;;;1.40;;
69573;SDS011;62840;52.366;5.980;2023-03-23T09:33:06;6.25;;;1.55;;
69573;SDS011;62840;52.366;5.980;2023-03-23T09:35:44;5.35;;;1.70;;
69573;SDS011;62840;52.366;5.980;2023-03-23T09:38:13;6.55;;;1.90;;
69573;SDS011;62840;52.366;5.980;2023-03-23T09:40:47;6.57;;;1.77;;
69573;SDS011;62840;52.366;5.980;2023-03-23T09:43:39;6.10;;;1.50;;
69573;SDS011;62840;52.366;5.980;2023-03-23T09:46:34;8.02;;;1.70;;
69573;SDS011;62840;52.366;5.980;2023-03-23T09:49:14;5.05;;;1.77;;
69573;SDS011;62840;52.366;5.980;2023-03-23T09:51:54;6.65;;;1.90;;
69573;SDS011;62840;52.366;5.980;2023-03-23T09:54:34;5.43;;;1.90;;
69573;SDS011;62840;52.366;5.980;2023-03-23T09:57:11;8.60;;;2.00;;
69573;SDS011;62840;52.366;5.980;2023-03-23T09:59:53;6.90;;;1.90;;
69573;SDS011;62840;52.366;5.980;2023-03-23T10:02:36;6.90;;;1.92;;
69573;SDS011;62840;52.366;5.980;2023-03-23T10:05:32;7.55;;;1.98;;
69573;SDS011;62840;52.366;5.980;2023-03-23T10:08:08;7.45;;;2.00;;
69573;SDS011;62840;52.366;5.980;2023-03-23T10:10:48;5.80;;;1.80;;
69573;SDS011;62840;52.366;5.980;2023-03-23T10:13:35;6.00;;;2.15;;
69573;SDS011;62840;52.366;5.980;2023-03-23T10:16:22;7.88;;;2.00;;
69573;SDS011;62840;52.366;5.980;2023-03-23T10:19:10;5.68;;;1.95;;
69573;SDS011;62840;52.366;5.980;2023-03-23T10:21:49;6.78;;;2.03;;
69573;SDS011;62840;52.366;5.980;2023-03-23T10:24:23;6.00;;;1.97;;
69573;SDS011;62840;52.366;5.980;2023-03-23T10:27:01;8.35;;;1.80;;
69573;SDS011;62840;52.366;5.980;2023-03-23T10:29:47;7.00;;;2.00;;
69573;SDS011;62840;52.366;5.980;2023-03-23T10:32:41;7.60;;;1.83;;
69573;SDS011;62840;52.366;5.980;2023-03-23T10:35:18;9.65;;;2.00;;
69573;SDS011;62840;52.366;5.980;2023-03-23T10:37:59;5.87;;;1.60;;
69573;SDS011;62840;52.366;5.980;2023-03-23T10:40:35;5.53;;;1.38;;
69573;SDS011;62840;52.366;5.980;2023-03-23T10:43:15;6.40;;;1.70;;
69573;SDS011;62840;52.366;5.980;2023-03-23T10:45:50;6.07;;;1.60;;
69573;SDS011;62840;52.366;5.980;2023-03-23T10:48:23;7.68;;;1.63;;
69573;SDS011;62840;52.366;5.980;2023-03-23T10:50:56;6.70;;;1.57;;
69573;SDS011;62840;52.366;5.980;2023-03-23T10:53:31;5.85;;;1.50;;
69573;SDS011;62840;52.366;5.980;2023-03-23T10:56:04;10.63;;;2.15;;
69573;SDS011;62840;52.366;5.980;2023-03-23T10:58:47;5.88;;;1.17;;
69573;SDS011;62840;52.366;5.980;2023-03-23T11:01:17;7.40;;;1.53;;
69573;SDS011;62840;52.366;5.980;2023-03-23T11:03:45;7.80;;;1.60;;
69573;SDS011;62840;52.366;5.980;2023-03-23T11:06:30;7.05;;;1.75;;
69573;SDS011;62840;52.366;5.980;2023-03-23T11:09:03;5.07;;;1.30;;
69573;SDS011;62840;52.366;5.980;2023-03-23T11:11:38;6.97;;;1.70;;
69573;SDS011;62840;52.366;5.980;2023-03-23T11:14:17;6.73;;;1.57;;
69573;SDS011;62840;52.366;5.980;2023-03-23T11:16:59;6.50;;;1.40;;
69573;SDS011;62840;52.366;5.980;2023-03-23T11:19:31;8.80;;;1.70;;
69573;SDS011;62840;52.366;5.980;2023-03-23T11:22:06;6.22;;;1.30;;
69573;SDS011;62840;52.366;5.980;2023-03-23T11:24:59;6.25;;;1.45;;
69573;SDS011;62840;52.366;5.980;2023-03-23T11:27:38;7.60;;;1.80;;
69573;SDS011;62840;52.366;5.980;2023-03-23T11:30:08;7.90;;;1.30;;
69573;SDS011;62840;52.366;5.980;2023-03-23T11:32:50;5.63;;;1.60;;
69573;SDS011;62840;52.366;5.980;2023-03-23T11:35:34;5.80;;;1.10;;
69573;SDS011;62840;52.366;5.980;2023-03-23T11:38:00;5.60;;;1.08;;
69573;SDS011;62840;52.366;5.980;2023-03-23T11:40:31;8.53;;;1.87;;
69573;SDS011;62840;52.366;5.980;2023-03-23T11:42:59;7.82;;;1.48;;
69573;SDS011;62840;52.366;5.980;2023-03-23T11:45:36;5.88;;;1.30;;
69573;SDS011;62840;52.366;5.980;2023-03-23T11:48:14;5.47;;;1.17;;
69573;SDS011;62840;52.366;5.980;2023-03-23T11:50:56;7.68;;;1.65;;
69573;SDS011;62840;52.366;5.980;2023-03-23T11:53:35;7.47;;;1.40;;
69573;SDS011;62840;52.366;5.980;2023-03-23T11:56:14;6.75;;;1.38;;
69573;SDS011;62840;52.366;5.980;2023-03-23T11:58:52;6.70;;;1.67;;
69573;SDS011;62840;52.366;5.980;2023-03-23T12:01:33;5.20;;;1.13;;
69573;SDS011;62840;52.366;5.980;2023-03-23T12:04:38;6.28;;;1.15;;
69573;SDS011;62840;52.366;5.980;2023-03-23T12:07:30;7.57;;;1.20;;
69573;SDS011;62840;52.366;5.980;2023-03-23T12:10:24;6.75;;;1.40;;
69573;SDS011;62840;52.366;5.980;2023-03-23T12:13:12;7.05;;;1.58;;
69573;SDS011;62840;52.366;5.980;2023-03-23T12:16:07;5.00;;;1.10;;
69573;SDS011;62840;52.366;5.980;2023-03-23T12:18:54;7.20;;;1.48;;
69573;SDS011;62840;52.366;5.980;2023-03-23T12:21:43;5.43;;;1.40;;
69573;SDS011;62840;52.366;5.980;2023-03-23T12:24:30;7.38;;;1.20;;
69573;SDS011;62840;52.366;5.980;2023-03-23T12:27:15;7.00;;;1.52;;
69573;SDS011;62840;52.366;5.980;2023-03-23T12:32:55;8.15;;;2.10;;
69573;SDS011;62840;52.366;5.980;2023-03-23T12:35:39;5.07;;;1.10;;
69573;SDS011;62840;52.366;5.980;2023-03-23T12:38:31;8.77;;;1.65;;
69573;SDS011;62840;52.366;5.980;2023-03-23T12:41:35;4.15;;;1.33;;
69573;SDS011;62840;52.366;5.980;2023-03-23T12:44:14;7.13;;;2.20;;
69573;SDS011;62840;52.366;5.980;2023-03-23T12:49:55;5.73;;;1.30;;
69573;SDS011;62840;52.366;5.980;2023-03-23T12:52:30;4.95;;;1.48;;
69573;SDS011;62840;52.366;5.980;2023-03-23T12:55:16;7.50;;;1.20;;
69573;SDS011;62840;52.366;5.980;2023-03-23T12:58:09;7.72;;;1.20;;
69573;SDS011;62840;52.366;5.980;2023-03-23T13:00:56;4.30;;;1.05;;
69573;SDS011;62840;52.366;5.980;2023-03-23T13:03:32;4.90;;;1.13;;
69573;SDS011;62840;52.366;5.980;2023-03-23T13:06:08;6.60;;;1.30;;
69573;SDS011;62840;52.366;5.980;2023-03-23T13:08:58;5.97;;;1.58;;
69573;SDS011;62840;52.366;5.980;2023-03-23T13:11:42;6.28;;;1.67;;
69573;SDS011;62840;52.366;5.980;2023-03-23T13:17:14;5.43;;;1.17;;
69573;SDS011;62840;52.366;5.980;2023-03-23T13:20:04;7.18;;;1.45;;
69573;SDS011;62840;52.366;5.980;2023-03-23T13:23:02;5.72;;;1.45;;
69573;SDS011;62840;52.366;5.980;2023-03-23T13:25:51;5.53;;;1.42;;
69573;SDS011;62840;52.366;5.980;2023-03-23T13:28:34;7.45;;;1.70;;
69573;SDS011;62840;52.366;5.980;2023-03-23T13:31:24;7.00;;;1.43;;
69573;SDS011;62840;52.366;5.980;2023-03-23T13:34:00;6.88;;;1.67;;
69573;SDS011;62840;52.366;5.980;2023-03-23T13:36:42;5.82;;;1.50;;
69573;SDS011;62840;52.366;5.980;2023-03-23T13:39:23;7.20;;;1.60;;
69573;SDS011;62840;52.366;5.980;2023-03-23T13:42:00;7.45;;;1.52;;
69573;SDS011;62840;52.366;5.980;2023-03-23T13:45:07;6.67;;;1.13;;
69573;SDS011;62840;52.366;5.980;2023-03-23T13:47:45;8.75;;;1.40;;
69573;SDS011;62840;52.366;5.980;2023-03-23T13:50:25;5.97;;;1.55;;
69573;SDS011;62840;52.366;5.980;2023-03-23T13:53:12;6.38;;;1.27;;
69573;SDS011;62840;52.366;5.980;2023-03-23T13:56:03;6.10;;;1.60;;
69573;SDS011;62840;52.366;5.980;2023-03-23T13:58:47;6.20;;;1.63;;
69573;SDS011;62840;52.366;5.980;2023-03-23T14:01:37;7.25;;;1.40;;
69573;SDS011;62840;52.366;5.980;2023-03-23T14:04:09;5.32;;;1.40;;
69573;SDS011;62840;52.366;5.980;2023-03-23T14:06:39;7.57;;;1.10;;
69573;SDS011;62840;52.366;5.980;2023-03-23T14:09:11;7.10;;;1.60;;
69573;SDS011;62840;52.366;5.980;2023-03-23T14:11:48;6.67;;;1.50;;
69573;SDS011;62840;52.366;5.980;2023-03-23T14:14:25;7.13;;;1.25;;
69573;SDS011;62840;52.366;5.980;2023-03-23T14:17:10;4.82;;;1.38;;
69573;SDS011;62840;52.366;5.980;2023-03-23T14:19:50;5.32;;;1.20;;
69573;SDS011;62840;52.366;5.980;2023-03-23T14:22:22;4.60;;;1.52;;
69573;SDS011;62840;52.366;5.980;2023-03-23T14:24:58;6.20;;;1.20;;
69573;SDS011;62840;52.366;5.980;2023-03-23T14:27:31;6.82;;;1.20;;
69573;SDS011;62840;52.366;5.980;2023-03-23T14:30:00;6.93;;;1.50;;
69573;SDS011;62840;52.366;5.980;2023-03-23T14:32:37;7.47;;;1.40;;
69573;SDS011;62840;52.366;5.980;2023-03-23T14:35:07;4.40;;;1.38;;
69573;SDS011;62840;52.366;5.980;2023-03-23T14:37:54;5.50;;;1.20;;
69573;SDS011;62840;52.366;5.980;2023-03-23T14:40:27;4.72;;;1.42;;
69573;SDS011;62840;52.366;5.980;2023-03-23T14:43:00;5.63;;;1.30;;
69573;SDS011;62840;52.366;5.980;2023-03-23T14:45:30;7.07;;;1.30;;
69573;SDS011;62840;52.366;5.980;2023-03-23T14:48:03;4.28;;;1.50;;
69573;SDS011;62840;52.366;5.980;2023-03-23T14:50:38;7.50;;;1.17;;
69573;SDS011;62840;52.366;5.980;2023-03-23T14:53:15;4.10;;;1.35;;
69573;SDS011;62840;52.366;5.980;2023-03-23T14:55:52;6.05;;;1.48;;
69573;SDS011;62840;52.366;5.980;2023-03-23T14:58:42;3.47;;;0.90;;
69573;SDS011;62840;52.366;5.980;2023-03-23T15:01:18;5.88;;;1.13;;
69573;SDS011;62840;52.366;5.980;2023-03-23T15:03:55;4.70;;;1.10;;
69573;SDS011;62840;52.366;5.980;2023-03-23T15:06:26;4.68;;;1.02;;
69573;SDS011;62840;52.366;5.980;2023-03-23T15:08:59;3.63;;;0.90;;
69573;SDS011;62840;52.366;5.980;2023-03-23T15:11:35;6.25;;;1.20;;
69573;SDS011;62840;52.366;5.980;2023-03-23T15:14:14;3.80;;;1.23;;
69573;SDS011;62840;52.366;5.980;2023-03-23T15:16:46;5.87;;;1.37;;
69573;SDS011;62840;52.366;5.980;2023-03-23T15:19:22;4.82;;;1.20;;
69573;SDS011;62840;52.366;5.980;2023-03-23T15:21:52;4.93;;;1.60;;
69573;SDS011;62840;52.366;5.980;2023-03-23T15:24:35;6.63;;;1.30;;
69573;SDS011;62840;52.366;5.980;2023-03-23T15:29:59;5.93;;;1.17;;
69573;SDS011;62840;52.366;5.980;2023-03-23T15:32:41;5.47;;;1.42;;
69573;SDS011;62840;52.366;5.980;2023-03-23T15:35:14;5.05;;;1.55;;
69573;SDS011;62840;52.366;5.980;2023-03-23T15:37:52;5.72;;;1.30;;
69573;SDS011;62840;52.366;5.980;2023-03-23T15:40:32;7.07;;;1.48;;
69573;SDS011;62840;52.366;5.980;2023-03-23T15:43:16;5.63;;;1.50;;
69573;SDS011;62840;52.366;5.980;2023-03-23T15:46:20;4.93;;;1.23;;
69573;SDS011;62840;52.366;5.980;2023-03-23T15:49:16;5.07;;;1.40;;
69573;SDS011;62840;52.366;5.980;2023-03-23T15:51:56;5.93;;;1.30;;
69573;SDS011;62840;52.366;5.980;2023-03-23T15:54:34;6.18;;;1.30;;
69573;SDS011;62840;52.366;5.980;2023-03-23T15:57:05;4.43;;;1.33;;
69573;SDS011;62840;52.366;5.980;2023-03-23T15:59:39;4.57;;;1.42;;
69573;SDS011;62840;52.366;5.980;2023-03-23T16:02:12;7.85;;;1.70;;
69573;SDS011;62840;52.366;5.980;2023-03-23T16:04:45;8.32;;;1.63;;